Lake Itasca, Minnesota
Current Conditions -  °F | °C
As of 1:54 PM on Tuesday 21 Oct 2014 (Local Time) from KBJI Reporting Station
Clear Clear  
Wind Chill: 54°   Ceiling: Unl
Heat Index: 54°   Visibility: 10mi
Dew Point: 40°   Wind: 18mph
Humidity: 59%   Direction: 130°SE
Pressure: 30.07"   Gusts: 24mph
Location:  47.25°N, 95.21°W
Report Text: KBJI 211854Z AUTO 13016G21KT 10SM CLR 12/04 A3007 RMK AO2 T01210042
Loading
Personal Weather Stations






























Interactive Weather Map
Tropical Storm Tracking
New forecast layout! Learn more

10-Day Weather Forecast

Advertisements
Track Severe Weather on mobile